createdAt,value
2016-12-01T00:01:08.639Z,0
2016-12-01T00:02:19.435Z,0
2016-12-01T00:03:30.153Z,0
2016-12-01T00:04:40.833Z,0
2016-12-01T00:05:51.496Z,0
2016-12-01T00:07:02.188Z,0
2016-12-01T00:08:13.392Z,0
2016-12-01T00:09:24.615Z,0
2016-12-01T00:10:35.279Z,0
2016-12-01T00:11:45.972Z,0
2016-12-01T00:12:56.690Z,0
2016-12-01T00:14:07.386Z,0
2016-12-01T00:15:18.083Z,0
2016-12-01T00:16:28.767Z,0
2016-12-01T00:17:39.430Z,0
2016-12-01T00:18:50.100Z,0
2016-12-01T00:20:00.826Z,0
2016-12-01T00:21:12.023Z,0
2016-12-01T00:22:22.702Z,0
2016-12-01T00:23:33.406Z,0
2016-12-01T00:24:44.099Z,0
2016-12-01T00:25:54.762Z,0
2016-12-01T00:27:05.429Z,0
2016-12-01T00:28:16.148Z,0
2016-12-01T00:29:26.866Z,0
2016-12-01T00:30:37.551Z,0
2016-12-01T00:31:48.240Z,0
2016-12-01T00:32:58.917Z,0
2016-12-01T00:34:09.592Z,0
2016-12-01T00:35:20.317Z,0
2016-12-01T00:36:30.986Z,0
2016-12-01T00:37:41.683Z,0
2016-12-01T00:38:52.368Z,0
2016-12-01T00:40:03.030Z,0
2016-12-01T00:41:13.812Z,0
2016-12-01T00:42:24.486Z,0
2016-12-01T00:43:35.166Z,0
2016-12-01T00:44:45.847Z,0
2016-12-01T00:45:56.525Z,0
2016-12-01T00:47:07.237Z,0
2016-12-01T00:48:17.917Z,0
2016-12-01T00:49:28.589Z,0
2016-12-01T00:50:39.264Z,0
2016-12-01T00:51:49.949Z,0
2016-12-01T00:53:00.608Z,0
2016-12-01T00:54:11.305Z,0
2016-12-01T00:55:21.994Z,0
2016-12-01T00:56:32.679Z,0
2016-12-01T00:57:43.380Z,0
2016-12-01T00:58:54.049Z,0
2016-12-01T01:00:04.724Z,0
2016-12-01T01:01:15.415Z,0
2016-12-01T01:02:26.092Z,0
2016-12-01T01:03:36.763Z,0
2016-12-01T01:04:47.437Z,0
2016-12-01T01:05:58.132Z,0
2016-12-01T01:07:08.823Z,0
2016-12-01T01:08:19.534Z,0
2016-12-01T01:09:30.206Z,0
2016-12-01T01:10:40.889Z,0
2016-12-01T01:11:51.572Z,0
2016-12-01T01:13:02.274Z,0
2016-12-01T01:14:12.977Z,0
2016-12-01T01:15:23.668Z,0
2016-12-01T01:16:34.338Z,0
2016-12-01T01:17:45.002Z,0
2016-12-01T01:18:55.684Z,0
2016-12-01T01:20:06.398Z,0
2016-12-01T01:21:17.609Z,0
2016-12-01T01:22:28.282Z,0
2016-12-01T01:23:39.495Z,0
2016-12-01T01:24:50.195Z,0
2016-12-01T01:26:00.876Z,0
2016-12-01T01:27:11.551Z,0
2016-12-01T01:28:22.244Z,0
2016-12-01T01:29:32.945Z,0
2016-12-01T01:30:43.643Z,0
2016-12-01T01:31:54.344Z,0
2016-12-01T01:33:04.999Z,0
2016-12-01T01:34:15.687Z,0
2016-12-01T01:35:26.356Z,0
2016-12-01T01:36:37.037Z,0
2016-12-01T01:37:47.752Z,0
2016-12-01T01:38:58.407Z,0
2016-12-01T01:40:09.093Z,0
2016-12-01T01:41:19.773Z,0
2016-12-01T01:42:30.473Z,0
2016-12-01T01:43:41.159Z,0
2016-12-01T01:44:51.881Z,0
2016-12-01T01:46:02.580Z,0
2016-12-01T01:47:13.256Z,0
2016-12-01T01:48:23.956Z,0
2016-12-01T01:49:34.629Z,0
2016-12-01T01:50:45.302Z,0
2016-12-01T01:51:55.993Z,0
2016-12-01T01:53:06.682Z,0
2016-12-01T01:54:17.385Z,0
2016-12-01T01:55:28.077Z,0
2016-12-01T01:56:38.735Z,0
2016-12-01T01:57:49.436Z,0
2016-12-01T01:59:00.108Z,0
2016-12-01T02:00:10.839Z,0
2016-12-01T02:01:21.492Z,0
2016-12-01T02:02:32.178Z,0
2016-12-01T02:03:42.851Z,0
2016-12-01T02:04:53.508Z,0
2016-12-01T02:06:04.718Z,0
2016-12-01T02:07:15.402Z,0
2016-12-01T02:08:26.107Z,0
2016-12-01T02:09:36.793Z,0
2016-12-01T02:10:48.012Z,0
2016-12-01T02:11:58.679Z,0
2016-12-01T02:13:09.380Z,0
2016-12-01T02:14:20.057Z,0
2016-12-01T02:15:30.746Z,0
2016-12-01T02:16:41.447Z,0
2016-12-01T02:17:52.120Z,0
2016-12-01T02:19:02.800Z,0
2016-12-01T02:20:13.492Z,0
2016-12-01T02:21:24.161Z,0
2016-12-01T02:22:34.840Z,0
2016-12-01T02:23:45.527Z,0
2016-12-01T02:24:56.231Z,0
2016-12-01T02:26:06.904Z,0
2016-12-01T02:27:17.613Z,0
2016-12-01T02:28:28.321Z,0
2016-12-01T02:29:39.009Z,0
2016-12-01T02:30:49.692Z,0
2016-12-01T02:32:00.363Z,0
2016-12-01T02:33:11.058Z,0
2016-12-01T02:34:22.294Z,0
2016-12-01T02:35:32.968Z,0
2016-12-01T02:36:43.639Z,0
2016-12-01T02:37:54.340Z,0
2016-12-01T02:39:04.998Z,0
2016-12-01T02:40:15.696Z,0
2016-12-01T02:41:26.416Z,0
2016-12-01T02:42:37.137Z,0
2016-12-01T02:43:47.832Z,0
2016-12-01T02:44:58.512Z,0
2016-12-01T02:46:09.199Z,0
2016-12-01T02:47:19.864Z,0
2016-12-01T02:48:30.516Z,0
2016-12-01T02:49:41.213Z,0
2016-12-01T02:50:51.885Z,0
2016-12-01T02:52:03.085Z,0
2016-12-01T02:53:14.403Z,0
2016-12-01T02:54:25.073Z,0
2016-12-01T02:55:35.759Z,0
2016-12-01T02:56:46.415Z,0
2016-12-01T02:57:57.625Z,0
2016-12-01T02:59:08.330Z,0
2016-12-01T03:00:19.010Z,0
2016-12-01T03:01:29.761Z,0
2016-12-01T03:02:40.473Z,0
2016-12-01T03:03:51.145Z,0
2016-12-01T03:05:01.835Z,0
2016-12-01T03:06:12.508Z,0
2016-12-01T03:07:23.176Z,0
2016-12-01T03:08:33.843Z,0
2016-12-01T03:09:44.534Z,0
2016-12-01T03:10:55.242Z,0
2016-12-01T03:12:05.916Z,0
2016-12-01T03:13:16.636Z,0
2016-12-01T03:14:27.337Z,0
2016-12-01T03:15:38.096Z,0
2016-12-01T03:16:48.792Z,0
2016-12-01T03:17:59.494Z,0
2016-12-01T03:19:10.175Z,0
2016-12-01T03:20:20.841Z,0
2016-12-01T03:21:31.539Z,0
2016-12-01T03:22:42.848Z,0
2016-12-01T03:23:53.552Z,0
2016-12-01T03:25:04.265Z,0
2016-12-01T03:26:15.452Z,0
2016-12-01T03:27:26.113Z,0
2016-12-01T03:28:36.814Z,0
2016-12-01T03:29:47.489Z,0
2016-12-01T03:30:58.179Z,0
2016-12-01T03:32:08.883Z,0
2016-12-01T03:33:19.597Z,0
2016-12-01T03:34:30.284Z,0
2016-12-01T03:35:41.004Z,0
2016-12-01T03:36:51.671Z,0
2016-12-01T03:38:02.860Z,0
2016-12-01T03:39:13.564Z,0
2016-12-01T03:40:24.249Z,0
2016-12-01T03:41:34.935Z,0
2016-12-01T03:42:45.595Z,0
2016-12-01T03:43:56.304Z,0
2016-12-01T03:45:06.993Z,0
2016-12-01T03:46:17.681Z,0
2016-12-01T03:47:28.436Z,0
2016-12-01T03:48:39.121Z,0
2016-12-01T03:49:49.779Z,0
2016-12-01T03:51:00.483Z,0
2016-12-01T03:52:11.145Z,0
2016-12-01T03:53:22.356Z,0
2016-12-01T03:54:33.059Z,0
2016-12-01T03:55:43.751Z,0
2016-12-01T03:56:54.449Z,0
2016-12-01T03:58:05.145Z,0
2016-12-01T03:59:15.846Z,0
2016-12-01T04:00:26.521Z,0
2016-12-01T04:01:37.218Z,0
2016-12-01T04:02:47.903Z,0
2016-12-01T04:03:58.592Z,0
2016-12-01T04:05:09.270Z,0
2016-12-01T04:06:19.961Z,0
2016-12-01T04:07:30.659Z,0
2016-12-01T04:08:41.333Z,0
2016-12-01T04:09:51.994Z,0
2016-12-01T04:11:02.692Z,0
2016-12-01T04:12:13.389Z,0
2016-12-01T04:13:24.084Z,0
2016-12-01T04:14:34.785Z,0
2016-12-01T04:15:45.500Z,0
2016-12-01T04:16:56.167Z,0
2016-12-01T04:18:06.875Z,0
2016-12-01T04:19:17.568Z,0
2016-12-01T04:20:28.244Z,0
2016-12-01T04:21:38.917Z,0
2016-12-01T04:22:49.594Z,0
2016-12-01T04:24:00.282Z,0
2016-12-01T04:25:10.986Z,0
2016-12-01T04:26:21.670Z,0
2016-12-01T04:27:32.353Z,0
2016-12-01T04:28:43.025Z,0
2016-12-01T04:29:54.204Z,0
2016-12-01T04:31:04.906Z,0
2016-12-01T04:32:15.576Z,0
2016-12-01T04:33:26.279Z,0
2016-12-01T04:34:36.961Z,0
2016-12-01T04:35:47.651Z,0
2016-12-01T04:36:58.332Z,0
2016-12-01T04:38:09.034Z,0
2016-12-01T04:39:19.700Z,0
2016-12-01T04:40:30.374Z,0
2016-12-01T04:41:41.050Z,0
2016-12-01T04:42:51.757Z,0
2016-12-01T04:44:02.435Z,0
2016-12-01T04:45:13.137Z,0
2016-12-01T04:46:23.820Z,0
2016-12-01T04:47:34.493Z,0
2016-12-01T04:48:45.151Z,0
2016-12-01T04:49:55.899Z,0
2016-12-01T04:51:06.601Z,0
2016-12-01T04:52:17.282Z,0
2016-12-01T04:53:27.932Z,0
2016-12-01T04:54:38.601Z,0
2016-12-01T04:55:49.282Z,0
2016-12-01T04:56:59.981Z,0
2016-12-01T04:58:10.665Z,0
2016-12-01T04:59:21.351Z,0
2016-12-01T05:00:32.030Z,0
2016-12-01T05:01:42.712Z,0
2016-12-01T05:02:53.411Z,0
2016-12-01T05:04:04.083Z,0
2016-12-01T05:05:14.757Z,0
2016-12-01T05:06:25.446Z,0
2016-12-01T05:07:36.117Z,0
2016-12-01T05:08:46.798Z,0
2016-12-01T05:09:57.502Z,0
2016-12-01T05:11:08.202Z,0
2016-12-01T05:12:18.884Z,0
2016-12-01T05:13:29.557Z,0
2016-12-01T05:14:40.739Z,0
2016-12-01T05:15:51.943Z,0
2016-12-01T05:17:02.650Z,0
2016-12-01T05:18:13.337Z,0
2016-12-01T05:19:24.554Z,0
2016-12-01T05:20:35.248Z,0
2016-12-01T05:21:45.903Z,0
2016-12-01T05:22:56.588Z,0
2016-12-01T05:24:07.288Z,0
2016-12-01T05:25:17.966Z,0
2016-12-01T05:26:28.651Z,0
2016-12-01T05:27:39.328Z,0
2016-12-01T05:28:50.020Z,0
2016-12-01T05:30:00.696Z,0
2016-12-01T05:31:11.365Z,0
2016-12-01T05:32:22.055Z,0
2016-12-01T05:33:32.741Z,0
2016-12-01T05:34:43.466Z,0
2016-12-01T05:35:54.124Z,0
2016-12-01T05:37:04.796Z,0
2016-12-01T05:38:15.515Z,0
2016-12-01T05:39:26.230Z,0
2016-12-01T05:40:36.892Z,0
2016-12-01T05:41:47.628Z,0
2016-12-01T05:42:58.310Z,0
2016-12-01T05:44:08.989Z,0
2016-12-01T05:45:19.701Z,0
2016-12-01T05:46:30.359Z,0
2016-12-01T05:47:41.055Z,0
2016-12-01T05:48:51.782Z,0
2016-12-01T05:50:02.471Z,0
2016-12-01T05:51:13.166Z,0
2016-12-01T05:52:23.875Z,0
2016-12-01T05:53:34.542Z,0
2016-12-01T05:54:45.203Z,0
2016-12-01T05:55:55.893Z,0
2016-12-01T05:57:06.587Z,0
2016-12-01T05:58:17.251Z,0
2016-12-01T05:59:27.955Z,0
2016-12-01T06:00:38.641Z,0
2016-12-01T06:01:49.332Z,0
2016-12-01T06:03:00.015Z,0
2016-12-01T06:04:10.704Z,0
2016-12-01T06:05:21.374Z,0
2016-12-01T06:06:32.094Z,0
2016-12-01T06:07:42.800Z,0
2016-12-01T06:08:53.491Z,0
2016-12-01T06:10:04.223Z,0
2016-12-01T06:11:14.912Z,0
2016-12-01T06:12:25.602Z,0
2016-12-01T06:13:36.279Z,0
2016-12-01T06:14:46.999Z,0
2016-12-01T06:15:57.698Z,0
2016-12-01T06:17:08.363Z,0
2016-12-01T06:18:19.070Z,0
2016-12-01T06:19:30.260Z,0
2016-12-01T06:20:40.919Z,0
2016-12-01T06:21:51.616Z,0
2016-12-01T06:23:02.316Z,0
2016-12-01T06:24:13.124Z,0
2016-12-01T06:25:23.834Z,0
2016-12-01T06:26:34.544Z,0
2016-12-01T06:27:45.246Z,0
2016-12-01T06:28:55.895Z,0
2016-12-01T06:30:06.588Z,0
2016-12-01T06:31:17.278Z,0
2016-12-01T06:32:27.939Z,0
2016-12-01T06:33:38.619Z,0
2016-12-01T06:34:49.546Z,0
2016-12-01T06:36:00.308Z,0
2016-12-01T06:37:10.985Z,0
2016-12-01T06:38:21.731Z,0
2016-12-01T06:39:32.446Z,0
2016-12-01T06:40:43.115Z,0
2016-12-01T06:41:53.835Z,0
2016-12-01T06:43:04.524Z,0
2016-12-01T06:44:15.226Z,0
2016-12-01T06:45:25.954Z,0
2016-12-01T06:46:36.617Z,0
2016-12-01T06:47:47.297Z,0
2016-12-01T06:48:57.980Z,0
2016-12-01T06:50:08.655Z,0
2016-12-01T06:51:19.355Z,0
2016-12-01T06:52:30.066Z,0
2016-12-01T06:53:40.738Z,0
2016-12-01T06:54:51.429Z,0
2016-12-01T06:56:02.123Z,0
2016-12-01T06:57:12.822Z,0
2016-12-01T06:58:23.486Z,0
2016-12-01T06:59:34.204Z,0
2016-12-01T07:00:44.866Z,0
2016-12-01T07:01:55.546Z,0
2016-12-01T07:03:06.218Z,0
2016-12-01T07:04:16.909Z,0
2016-12-01T07:05:27.619Z,0
2016-12-01T07:06:38.269Z,0
2016-12-01T07:07:48.936Z,0
2016-12-01T07:08:59.653Z,0
2016-12-01T07:10:10.320Z,0
2016-12-01T07:11:20.986Z,0
2016-12-01T07:12:31.667Z,0
2016-12-01T07:13:42.349Z,0
2016-12-01T07:14:53.035Z,0
2016-12-01T07:16:03.719Z,0
2016-12-01T07:17:14.447Z,0
2016-12-01T07:18:25.195Z,0
2016-12-01T07:19:35.889Z,0
2016-12-01T07:20:46.586Z,0
2016-12-01T07:21:57.254Z,0
2016-12-01T07:23:07.941Z,0
2016-12-01T07:24:18.629Z,0
2016-12-01T07:25:29.343Z,0
2016-12-01T07:26:40.026Z,0
2016-12-01T07:27:50.830Z,0
2016-12-01T07:29:02.073Z,0
2016-12-01T07:30:13.282Z,0
2016-12-01T07:31:23.964Z,0
2016-12-01T07:32:34.653Z,0
2016-12-01T07:33:45.355Z,0
2016-12-01T07:34:56.055Z,0
2016-12-01T07:36:06.743Z,0
2016-12-01T07:37:17.469Z,0
2016-12-01T07:38:28.128Z,0
2016-12-01T07:39:38.818Z,4
2016-12-01T07:40:49.558Z,0
2016-12-01T07:42:00.210Z,0
2016-12-01T07:43:10.887Z,4
2016-12-01T07:44:21.569Z,0
2016-12-01T07:45:32.275Z,4
2016-12-01T07:46:43.006Z,4
2016-12-01T07:47:53.671Z,8
2016-12-01T07:49:04.383Z,4
2016-12-01T07:50:15.056Z,4
2016-12-01T07:51:25.750Z,8
2016-12-01T07:52:36.432Z,12
2016-12-01T07:53:47.156Z,16
2016-12-01T07:54:57.828Z,24
2016-12-01T07:56:08.498Z,32
2016-12-01T07:57:19.164Z,36
2016-12-01T07:58:29.841Z,44
2016-12-01T07:59:40.523Z,52
2016-12-01T08:00:51.196Z,60
2016-12-01T08:02:01.897Z,72
2016-12-01T08:03:12.610Z,100
2016-12-01T08:04:23.301Z,124
2016-12-01T08:05:33.998Z,160
2016-12-01T08:06:44.693Z,180
2016-12-01T08:07:55.375Z,212
2016-12-01T08:09:06.043Z,228
2016-12-01T08:10:16.729Z,232
2016-12-01T08:11:27.370Z,248
2016-12-01T08:12:38.062Z,284
2016-12-01T08:13:48.741Z,316
2016-12-01T08:14:59.406Z,368
2016-12-01T08:16:10.086Z,520
2016-12-01T08:17:20.774Z,740
2016-12-01T08:18:31.450Z,888
2016-12-01T08:19:42.123Z,1052
2016-12-01T08:20:52.785Z,1172
2016-12-01T08:22:03.480Z,1276
2016-12-01T08:23:14.201Z,1360
2016-12-01T08:24:24.883Z,1480
2016-12-01T08:25:35.600Z,1640
2016-12-01T08:26:46.264Z,1828
2016-12-01T08:27:56.974Z,1984
2016-12-01T08:29:07.684Z,2100
2016-12-01T08:30:18.371Z,2132
2016-12-01T08:31:29.045Z,2160
2016-12-01T08:32:39.763Z,2232
2016-12-01T08:33:50.450Z,2380
2016-12-01T08:35:01.119Z,2452
2016-12-01T08:36:11.813Z,2420
2016-12-01T08:37:22.497Z,2428
2016-12-01T08:38:33.190Z,2544
2016-12-01T08:39:43.887Z,2656
2016-12-01T08:40:54.594Z,2940
2016-12-01T08:42:05.265Z,3112
2016-12-01T08:43:15.938Z,3224
2016-12-01T08:44:26.612Z,3324
2016-12-01T08:45:37.276Z,3600
2016-12-01T08:46:47.958Z,3640
2016-12-01T08:47:58.636Z,3720
2016-12-01T08:49:09.324Z,4104
2016-12-01T08:50:19.990Z,4568
2016-12-01T08:51:30.672Z,5188
2016-12-01T08:52:41.353Z,5576
2016-12-01T08:53:52.000Z,6032
2016-12-01T08:55:02.700Z,6144
2016-12-01T08:56:13.378Z,5940
2016-12-01T08:57:24.045Z,5832
2016-12-01T08:58:34.713Z,6288
2016-12-01T08:59:45.385Z,6348
2016-12-01T09:00:56.077Z,6548
2016-12-01T09:02:06.782Z,6964
2016-12-01T09:03:17.452Z,6760
2016-12-01T09:04:28.148Z,6792
2016-12-01T09:05:38.845Z,7620
2016-12-01T09:06:49.551Z,8544
2016-12-01T09:08:00.252Z,8284
2016-12-01T09:09:10.941Z,7520
2016-12-01T09:10:22.141Z,7288
2016-12-01T09:11:33.355Z,7564
2016-12-01T09:12:44.050Z,7820
2016-12-01T09:13:55.256Z,8096
2016-12-01T09:15:05.938Z,8512
2016-12-01T09:16:16.649Z,8804
2016-12-01T09:17:27.315Z,9800
2016-12-01T09:18:38.017Z,11632
2016-12-01T09:19:48.682Z,10384
2016-12-01T09:20:59.377Z,10780
2016-12-01T09:22:10.059Z,11780
2016-12-01T09:23:20.756Z,12304
2016-12-01T09:24:31.426Z,13008
2016-12-01T09:25:42.642Z,13044
2016-12-01T09:26:53.326Z,12976
2016-12-01T09:28:04.027Z,13316
2016-12-01T09:29:14.769Z,13716
2016-12-01T09:30:25.487Z,14124
2016-12-01T09:31:36.184Z,12848
2016-12-01T09:32:46.857Z,14116
2016-12-01T09:33:57.552Z,13224
2016-12-01T09:35:08.740Z,13132
2016-12-01T09:36:19.402Z,12720
2016-12-01T09:37:30.108Z,13808
2016-12-01T09:38:40.816Z,14012
2016-12-01T09:39:51.494Z,13936
2016-12-01T09:41:02.223Z,13496
2016-12-01T09:42:12.927Z,13320
2016-12-01T09:43:23.613Z,12144
2016-12-01T09:44:34.317Z,12560
2016-12-01T09:45:45.497Z,13712
2016-12-01T09:46:56.189Z,14420
2016-12-01T09:48:06.873Z,13976
2016-12-01T09:49:17.585Z,12768
2016-12-01T09:50:28.269Z,11960
2016-12-01T09:51:38.961Z,11968
2016-12-01T09:52:49.641Z,12284
2016-12-01T09:54:00.306Z,12400
2016-12-01T09:55:11.001Z,11996
2016-12-01T09:56:21.700Z,11136
2016-12-01T09:57:32.380Z,10380
2016-12-01T09:58:43.057Z,9580
2016-12-01T09:59:53.750Z,8832
2016-12-01T10:01:04.467Z,8432
2016-12-01T10:02:15.149Z,8736
2016-12-01T10:03:25.847Z,9760
2016-12-01T10:04:36.565Z,11324
2016-12-01T10:05:47.240Z,11476
2016-12-01T10:06:57.963Z,10224
2016-12-01T10:08:08.652Z,8904
2016-12-01T10:09:19.340Z,8284
2016-12-01T10:10:30.031Z,8252
2016-12-01T10:11:40.817Z,7816
2016-12-01T10:12:51.527Z,7580
2016-12-01T10:14:02.228Z,7148
2016-12-01T10:15:12.908Z,6184
2016-12-01T10:16:23.599Z,6332
2016-12-01T10:17:34.270Z,6160
2016-12-01T10:18:44.958Z,6024
2016-12-01T10:19:55.654Z,6576
2016-12-01T10:21:06.864Z,7440
2016-12-01T10:22:17.741Z,8384
2016-12-01T10:23:28.454Z,8872
2016-12-01T10:24:39.139Z,10572
2016-12-01T10:25:50.174Z,13616
2016-12-01T10:27:00.918Z,14512
2016-12-01T10:28:11.652Z,13840
2016-12-01T10:29:22.364Z,12068
2016-12-01T10:30:33.029Z,10392
2016-12-01T10:31:43.702Z,9780
2016-12-01T10:32:54.380Z,9888
2016-12-01T10:34:05.108Z,10136
2016-12-01T10:35:15.811Z,11500
2016-12-01T10:36:26.519Z,14840
2016-12-01T10:37:37.203Z,16192
2016-12-01T10:38:47.933Z,17792
2016-12-01T10:39:58.630Z,16300
2016-12-01T10:41:09.337Z,17312
2016-12-01T10:42:20.018Z,17888
2016-12-01T10:43:30.690Z,15600
2016-12-01T10:44:41.364Z,15460
2016-12-01T10:45:52.043Z,17664
2016-12-01T10:47:02.722Z,16072
2016-12-01T10:48:13.406Z,13636
2016-12-01T10:49:24.101Z,13868
2016-12-01T10:50:34.815Z,21088
2016-12-01T10:51:45.509Z,22112
2016-12-01T10:52:56.333Z,21792
2016-12-01T10:54:07.002Z,21856
2016-12-01T10:55:17.681Z,19296
2016-12-01T10:56:28.365Z,18720
2016-12-01T10:57:39.075Z,21408
2016-12-01T10:58:49.790Z,22432
2016-12-01T11:00:00.476Z,21824
2016-12-01T11:01:11.170Z,20480
2016-12-01T11:02:21.882Z,19552
2016-12-01T11:03:32.558Z,16664
2016-12-01T11:04:43.249Z,13516
2016-12-01T11:05:54.469Z,10912
2016-12-01T11:07:05.164Z,9064
2016-12-01T11:08:15.849Z,8396
2016-12-01T11:09:26.594Z,8812
2016-12-01T11:10:37.249Z,9928
2016-12-01T11:11:48.492Z,11580
2016-12-01T11:12:59.181Z,14772
2016-12-01T11:14:09.890Z,14424
2016-12-01T11:15:20.576Z,13696
2016-12-01T11:16:31.262Z,12520
2016-12-01T11:17:41.942Z,10896
2016-12-01T11:18:52.654Z,10900
2016-12-01T11:20:03.375Z,12148
2016-12-01T11:21:14.076Z,14012
2016-12-01T11:22:24.771Z,15960
2016-12-01T11:23:35.506Z,20704
2016-12-01T11:24:46.205Z,32608
2016-12-01T11:25:57.242Z,43104
2016-12-01T11:27:08.416Z,40544
2016-12-01T11:28:19.592Z,42720
2016-12-01T11:29:30.755Z,35552
2016-12-01T11:30:41.932Z,36672
2016-12-01T11:31:53.156Z,38208
2016-12-01T11:33:04.343Z,51904
2016-12-01T11:34:15.509Z,48608
2016-12-01T11:35:26.711Z,38560
2016-12-01T11:36:37.864Z,35296
2016-12-01T11:37:49.296Z,32512
2016-12-01T11:39:00.471Z,34560
2016-12-01T11:40:11.645Z,36576
2016-12-01T11:41:22.812Z,53376
2016-12-01T11:42:33.963Z,43136
2016-12-01T11:43:45.127Z,42752
2016-12-01T11:44:56.868Z,47136
2016-12-01T11:46:08.038Z,47712
2016-12-01T11:47:19.204Z,45280
2016-12-01T11:48:30.387Z,42816
2016-12-01T11:49:41.576Z,45664
2016-12-01T11:50:52.748Z,32992
2016-12-01T11:52:03.902Z,31456
2016-12-01T11:53:15.639Z,33344
2016-12-01T11:54:26.829Z,33952
2016-12-01T11:55:38.020Z,32896
2016-12-01T11:56:49.214Z,34464
2016-12-01T11:58:00.401Z,37472
2016-12-01T11:59:11.562Z,40192
2016-12-01T12:00:22.752Z,37920
2016-12-01T12:01:33.927Z,35616
2016-12-01T12:02:45.086Z,33024
2016-12-01T12:03:56.262Z,33536
2016-12-01T12:05:07.430Z,47136
2016-12-01T12:06:18.605Z,50208
2016-12-01T12:07:29.784Z,40960
2016-12-01T12:08:40.964Z,37440
2016-12-01T12:09:52.137Z,37088
2016-12-01T12:11:03.312Z,38112
2016-12-01T12:12:14.494Z,38144
2016-12-01T12:13:25.662Z,36320
2016-12-01T12:14:36.843Z,31488
2016-12-01T12:15:47.993Z,29120
2016-12-01T12:16:59.139Z,26720
2016-12-01T12:18:10.364Z,24608
2016-12-01T12:19:21.591Z,23552
2016-12-01T12:20:32.776Z,23200
2016-12-01T12:21:43.942Z,24192
2016-12-01T12:22:55.124Z,25312
2016-12-01T12:24:06.415Z,24448
2016-12-01T12:25:17.949Z,25344
2016-12-01T12:26:29.211Z,24768
2016-12-01T12:27:40.356Z,24256
2016-12-01T12:28:51.542Z,23520
2016-12-01T12:30:03.282Z,22656
2016-12-01T12:31:14.481Z,22624
2016-12-01T12:32:25.634Z,23712
2016-12-01T12:33:36.788Z,25184
2016-12-01T12:34:47.969Z,27072
2016-12-01T12:35:59.187Z,27808
2016-12-01T12:37:10.326Z,14072
2016-12-01T12:38:21.511Z,15404
2016-12-01T12:39:33.233Z,14500
2016-12-01T12:40:44.388Z,17088
2016-12-01T12:41:56.163Z,18144
2016-12-01T12:43:07.335Z,17024
2016-12-01T12:44:18.479Z,17152
2016-12-01T12:45:29.641Z,17376
2016-12-01T12:46:40.810Z,16260
2016-12-01T12:47:52.004Z,17152
2016-12-01T12:49:03.157Z,17344
2016-12-01T12:50:14.358Z,17920
2016-12-01T12:51:25.699Z,30944
2016-12-01T12:52:36.920Z,30784
2016-12-01T12:53:49.305Z,29024
2016-12-01T12:55:00.482Z,28640
2016-12-01T12:56:11.638Z,26560
2016-12-01T12:57:22.439Z,24544
2016-12-01T12:58:33.108Z,24608
2016-12-01T12:59:43.803Z,28416
2016-12-01T13:00:55.038Z,30176
2016-12-01T13:02:05.700Z,29408
2016-12-01T13:03:16.388Z,27680
2016-12-01T13:04:27.088Z,26976
2016-12-01T13:05:37.779Z,27392
2016-12-01T13:06:48.484Z,28000
2016-12-01T13:07:59.175Z,30336
2016-12-01T13:09:09.885Z,32896
2016-12-01T13:10:20.576Z,35040
2016-12-01T13:11:31.284Z,36512
2016-12-01T13:12:41.950Z,36064
2016-12-01T13:13:52.618Z,34176
2016-12-01T13:15:03.855Z,31360
2016-12-01T13:16:14.546Z,29632
2016-12-01T13:17:25.225Z,30880
2016-12-01T13:18:35.930Z,29312
2016-12-01T13:19:46.616Z,28992
2016-12-01T13:20:57.290Z,29920
2016-12-01T13:22:07.971Z,36160
2016-12-01T13:23:18.663Z,46336
2016-12-01T13:24:29.363Z,51040
2016-12-01T13:25:40.059Z,52832
2016-12-01T13:26:50.744Z,53888
2016-12-01T13:28:01.454Z,48576
2016-12-01T13:29:12.142Z,47008
2016-12-01T13:30:22.855Z,52928
2016-12-01T13:31:33.585Z,50848
2016-12-01T13:32:44.265Z,52352
2016-12-01T13:33:54.970Z,46816
2016-12-01T13:35:05.671Z,44672
2016-12-01T13:36:16.367Z,44320
2016-12-01T13:37:27.053Z,43712
2016-12-01T13:38:38.745Z,42784
2016-12-01T13:39:49.450Z,46624
2016-12-01T13:41:00.145Z,45984
2016-12-01T13:42:10.847Z,44608
2016-12-01T13:43:21.541Z,40864
2016-12-01T13:44:32.256Z,41792
2016-12-01T13:45:42.956Z,43744
2016-12-01T13:46:53.642Z,45440
2016-12-01T13:48:04.350Z,45856
2016-12-01T13:49:15.295Z,45312
2016-12-01T13:50:25.965Z,41824
2016-12-01T13:51:36.674Z,40960
2016-12-01T13:52:47.369Z,40544
2016-12-01T13:53:58.078Z,41312
2016-12-01T13:55:09.807Z,45216
2016-12-01T13:56:20.517Z,53440
2016-12-01T13:57:31.224Z,52832
2016-12-01T13:58:42.435Z,53088
2016-12-01T13:59:53.128Z,50720
2016-12-01T14:01:03.835Z,59328
2016-12-01T14:02:14.545Z,53472
2016-12-01T14:03:25.237Z,50848
2016-12-01T14:04:35.933Z,53248
2016-12-01T14:05:46.628Z,58016
2016-12-01T14:06:57.333Z,59520
2016-12-01T14:08:08.006Z,57728
2016-12-01T14:09:18.720Z,56160
2016-12-01T14:10:29.419Z,52800
2016-12-01T14:11:40.618Z,49056
2016-12-01T14:12:51.373Z,51168
2016-12-01T14:14:02.069Z,48096
2016-12-01T14:15:12.768Z,54496
2016-12-01T14:16:23.434Z,67776
2016-12-01T14:17:34.148Z,60064
2016-12-01T14:18:45.385Z,47456
2016-12-01T14:19:56.076Z,41824
2016-12-01T14:21:06.793Z,39456
2016-12-01T14:22:17.467Z,39552
2016-12-01T14:23:28.497Z,39744
2016-12-01T14:24:39.224Z,37216
2016-12-01T14:25:49.928Z,34112
2016-12-01T14:27:00.637Z,35744
2016-12-01T14:28:11.322Z,35840
2016-12-01T14:29:21.997Z,38368
2016-12-01T14:30:33.219Z,39744
2016-12-01T14:31:43.938Z,44160
2016-12-01T14:32:54.613Z,60896
2016-12-01T14:34:05.345Z,76800
2016-12-01T14:35:16.029Z,67264
2016-12-01T14:36:26.733Z,64384
2016-12-01T14:37:37.411Z,63040
2016-12-01T14:38:48.101Z,66304
2016-12-01T14:39:58.796Z,66912
2016-12-01T14:41:09.530Z,69664
2016-12-01T14:42:20.205Z,50720
2016-12-01T14:43:30.877Z,47744
2016-12-01T14:44:41.587Z,47968
2016-12-01T14:45:52.260Z,43936
2016-12-01T14:47:02.994Z,38816
2016-12-01T14:48:13.698Z,37216
2016-12-01T14:49:24.911Z,36992
2016-12-01T14:50:35.609Z,38080
2016-12-01T14:51:46.320Z,35776
2016-12-01T14:52:57.005Z,34272
2016-12-01T14:54:07.696Z,34272
2016-12-01T14:55:18.376Z,37344
2016-12-01T14:56:29.073Z,36896
2016-12-01T14:57:39.767Z,32352
2016-12-01T14:58:50.448Z,29280
2016-12-01T15:00:01.188Z,28704
2016-12-01T15:01:11.923Z,31648
2016-12-01T15:02:22.616Z,35936
2016-12-01T15:03:33.303Z,40832
2016-12-01T15:04:43.992Z,44128
2016-12-01T15:05:55.221Z,47648
2016-12-01T15:07:05.915Z,45664
2016-12-01T15:08:16.620Z,44000
2016-12-01T15:09:27.326Z,44512
2016-12-01T15:10:38.001Z,43776
2016-12-01T15:11:48.683Z,43808
2016-12-01T15:12:59.396Z,43648
2016-12-01T15:14:10.080Z,39744
2016-12-01T15:15:20.811Z,35232
2016-12-01T15:16:32.026Z,33152
2016-12-01T15:17:42.744Z,33536
2016-12-01T15:18:53.423Z,36544
2016-12-01T15:20:04.092Z,40224
2016-12-01T15:21:15.324Z,44608
2016-12-01T15:22:26.522Z,45120
2016-12-01T15:23:37.211Z,47168
2016-12-01T15:24:47.893Z,48704
2016-12-01T15:25:58.593Z,56800
2016-12-01T15:27:09.321Z,57664
2016-12-01T15:28:20.017Z,64160
2016-12-01T15:29:30.726Z,60256
2016-12-01T15:30:41.460Z,81248
2016-12-01T15:31:52.148Z,88992
2016-12-01T15:33:02.877Z,63616
2016-12-01T15:34:13.574Z,67520
2016-12-01T15:35:24.272Z,62336
2016-12-01T15:36:34.971Z,66336
2016-12-01T15:37:45.641Z,54592
2016-12-01T15:38:56.368Z,50304
2016-12-01T15:40:07.089Z,60928
2016-12-01T15:41:17.800Z,84288
2016-12-01T15:42:28.523Z,70528
2016-12-01T15:43:39.733Z,68640
2016-12-01T15:44:50.415Z,124480
2016-12-01T15:46:01.136Z,70752
2016-12-01T15:47:11.832Z,85024
2016-12-01T15:48:22.532Z,66432
2016-12-01T15:49:33.248Z,61664
2016-12-01T15:50:43.963Z,50208
2016-12-01T15:51:54.651Z,48736
2016-12-01T15:53:05.875Z,49920
2016-12-01T15:54:16.591Z,48352
2016-12-01T15:55:27.297Z,57216
2016-12-01T15:56:38.004Z,68992
2016-12-01T15:57:49.034Z,59712
2016-12-01T15:58:59.739Z,48064
2016-12-01T16:00:10.413Z,44128
2016-12-01T16:01:21.105Z,44256
2016-12-01T16:02:31.812Z,74336
2016-12-01T16:03:42.516Z,124288
2016-12-01T16:04:53.720Z,48736
2016-12-01T16:06:04.409Z,59616
2016-12-01T16:07:15.129Z,46592
2016-12-01T16:08:25.863Z,21376
2016-12-01T16:09:37.096Z,22272
2016-12-01T16:10:47.779Z,43200
2016-12-01T16:11:58.446Z,44224
2016-12-01T16:13:09.127Z,41888
2016-12-01T16:14:19.842Z,39392
2016-12-01T16:15:30.539Z,39104
2016-12-01T16:16:41.218Z,42560
2016-12-01T16:17:51.948Z,42752